Nearby METAR Reports

 

KSJC - San Jose, California, USA
Distance from station: NØ 14km
Oppdatert: 04/08/2020 18:53
Few Clouds
Few Clouds
 Vind fra varies
Vind: varies 6 km/h
Temperatur: 21°C
Duggpunkt: 13°C
Fuktighet: 60%
Barometer: 1015.2 hPa
Clouds: Few Clouds
Visibility: 16 km
Cloud details: Few Clouds 366 m
2020/08/04 16:53 KSJC 041653Z VRB03KT 10SM FEW012 21/13 A2998 RMK AO2 SLP151 T02060128
KNUQ - Moffett Nas/Mtn, California, USA
Distance from station: N 14km
Oppdatert: 04/08/2020 15:55
NOT Current

 Vind fra calm
Vind: Stille
Temperatur: 16°C
Duggpunkt: 14°C
Fuktighet: 88%
Barometer: 1015.2 hPa
Visibility: 16 km
2020/08/04 13:55 KNUQ 041355Z AUTO 00000KT 10SM 16/14 A2998 RMK AO2
 
KPAO - Palo Alto, California, USA
Distance from station: NNV 23km
Oppdatert: 04/08/2020 18:00
Few Clouds
Few Clouds
 Vind fra varies
Vind: varies 7 km/h
Temperatur: 18°C
Duggpunkt: 14°C
Fuktighet: 78%
Barometer: 1015.6 hPa
Clouds: Few Clouds
Visibility: 16 km
Cloud details: Few Clouds 610 m
2020/08/04 16:00 KPAO 041600Z VRB04KT 10SM FEW020 18/14 A2999
KRHV - San Jose/Reid, California, USA
Distance from station: ØNØ 19km
Oppdatert: 04/08/2020 18:50
Klart
Klart
 Vind fra SV
Vind: SV 9 km/h
Temperatur: 20°C
Duggpunkt: 13°C
Fuktighet: 64%
Barometer: 1015.6 hPa
Clouds: Klart
Visibility: 16 km
2020/08/04 16:50 KRHV 041650Z 23005KT 10SM SKC 20/13 A2999
 
KOAK - Oakland, California, USA
Distance from station: NNV 50km
Oppdatert: 04/08/2020 18:53
Hovedsaklig skyet
Hovedsaklig skyet
 Vind fra VSV
Vind: VSV 15 km/h
Temperatur: 18°C
Duggpunkt: 13°C
Fuktighet: 73%
Barometer: 1015.9 hPa
Clouds: Hovedsaklig skyet
Visibility: 16 km
Cloud details: Hovedsaklig skyet 244 m
2020/08/04 16:53 KOAK 041653Z 24008KT 10SM BKN008 18/13 A3000 RMK AO2 SLP157 T01830133
KSQL - San Carlos Airpo, California, USA
Distance from station: NV 34km
Oppdatert: 04/08/2020 16:47
NOT Current
Delvis skyet
Delvis skyet
 Vind fra calm
Vind: Stille
Temperatur: 17°C
Duggpunkt: 14°C
Fuktighet: 83%
Barometer: 1015.6 hPa
Clouds: Delvis skyet
Visibility: 16 km
Cloud details: Delvis skyet 183 m
2020/08/04 14:47 KSQL 041447Z 00000KT 10SM SCT006 17/14 A2999
 
KSFO - San Francisco, California, USA
Distance from station: NV 49km
Oppdatert: 04/08/2020 18:56
Few Clouds
Few Clouds
 Vind fra NV
Vind: NV 15 km/h
Temperatur: 18°C
Duggpunkt: 13°C
Fuktighet: 73%
Barometer: 1015.2 hPa
Clouds: Few Clouds
Visibility: 16 km
Cloud details: Few Clouds 244 m
Few Clouds 366 m
2020/08/04 16:56 KSFO 041656Z 32008KT 10SM FEW008 FEW012 18/13 A2998 RMK AO2 SLP153 T01830128
KE16 - San Martin, California, USA
Distance from station: ØSØ 43km
Oppdatert: 04/08/2020 18:50
Hovedsaklig skyet
Hovedsaklig skyet
 Vind fra SØ
Vind: SØ 15 km/h
Temperatur: 16°C
Duggpunkt: 13°C
Fuktighet: 83%
Barometer: 1016.9 hPa
Clouds: Hovedsaklig skyet
Visibility: 14 km
Cloud details: Hovedsaklig skyet 274 m
2020/08/04 16:50 KE16 041650Z AUTO 13008KT 9SM BKN009 16/13 A3003 RMK AO2
 
KWVI - Watsonville, California, USA
Distance from station: SSØ 44km
Oppdatert: 04/08/2020 18:53
Overskyet
Overskyet
 Vind fra SSV
Vind: SSV 6 km/h
Temperatur: 17°C
Duggpunkt: 14°C
Fuktighet: 83%
Barometer: 1016.9 hPa
Clouds: Overskyet
Visibility: 16 km
Cloud details: Overskyet 244 m
2020/08/04 16:53 KWVI 041653Z AUTO 20003KT 10SM OVC008 17/14 A3003 RMK AO2 SLP168 T01670139
KHAF - Half Moon Bay, California, USA
Distance from station: VNV 50km
Oppdatert: 04/08/2020 18:55
Mist, Overskyet
Mist, Overskyet
 Vind fra V
Vind: V 7 km/h
Temperatur: 13°C
Duggpunkt: 13°C
Fuktighet: 100%
Barometer: 1017.3 hPa
Oversikt: Mist
Clouds: Overskyet
Visibility: 1.2 km
Cloud details: Overskyet 91 m
2020/08/04 16:55 KHAF 041655Z AUTO 26004KT 3/4SM BR OVC003 13/13 A3004 RMK AO2
 
KHWD - Hayward, California, USA
Distance from station: N 44km
Oppdatert: 04/08/2020 18:54
Few Clouds
Few Clouds
 Vind fra V
Vind: V 9 km/h
Temperatur: 19°C
Duggpunkt: 13°C
Fuktighet: 68%
Barometer: 1015.6 hPa
Clouds: Few Clouds
Visibility: 16 km
Cloud details: Few Clouds 366 m
2020/08/04 16:54 KHWD 041654Z 27005KT 10SM FEW012 19/13 A2999 RMK AO2 SLP164 T01890128
KLVK - Livermore, California, USA
Distance from station: NNØ 51km
Oppdatert: 04/08/2020 18:53
Klart
Klart
 Vind fra NV
Vind: NV 13 km/h
Temperatur: 21°C
Duggpunkt: 13°C
Fuktighet: 60%
Barometer: 1014.9 hPa
Clouds: Klart
Visibility: 16 km
2020/08/04 16:53 KLVK 041653Z 31007KT 10SM CLR 21/13 A2997 RMK AO2 SLP144 T02110133